createdAt,value
2023-04-26T00:01:27.375Z,101372.00
2023-04-26T00:03:54.094Z,101371.16
2023-04-26T00:06:20.623Z,101379.19
2023-04-26T00:08:47.147Z,101378.38
2023-04-26T00:11:13.507Z,101374.16
2023-04-26T00:13:39.897Z,101373.28
2023-04-26T00:16:06.723Z,101373.28
2023-04-26T00:18:33.096Z,101369.94
2023-04-26T00:20:59.451Z,101369.97
2023-04-26T00:23:26.180Z,101376.16
2023-04-26T00:25:52.502Z,101363.03
2023-04-26T00:28:18.893Z,101362.25
2023-04-26T00:30:48.695Z,101357.03
2023-04-26T00:33:15.060Z,101358.81
2023-04-26T00:35:41.449Z,101353.56
2023-04-26T00:38:08.017Z,101355.34
2023-04-26T00:40:35.378Z,101353.56
2023-04-26T00:43:02.942Z,101356.31
2023-04-26T00:45:29.934Z,101358.94
2023-04-26T00:47:56.513Z,101351.06
2023-04-26T00:50:22.953Z,101359.16
2023-04-26T00:52:49.415Z,101352.84
2023-04-26T00:55:16.668Z,101350.31
2023-04-26T00:57:45.658Z,101345.91
2023-04-26T01:00:12.628Z,101351.28
2023-04-26T01:02:39.087Z,101346.84
2023-04-26T01:05:06.874Z,101348.59
2023-04-26T01:07:33.719Z,101350.38
2023-04-26T01:10:04.857Z,101339.81
2023-04-26T01:12:32.685Z,101341.56
2023-04-26T01:15:02.851Z,101349.63
2023-04-26T01:17:29.641Z,101348.81
2023-04-26T01:19:57.104Z,101355.91
2023-04-26T01:22:23.486Z,101353.38
2023-04-26T01:24:51.608Z,101353.59
2023-04-26T01:27:18.119Z,101359.06
2023-04-26T01:29:44.504Z,101357.38
2023-04-26T01:32:11.888Z,101355.75
2023-04-26T01:34:38.378Z,101358.44
2023-04-26T01:37:04.750Z,101359.50
2023-04-26T01:39:31.260Z,101363.03
2023-04-26T01:42:00.568Z,101359.50
2023-04-26T01:44:26.896Z,101363.03
2023-04-26T01:46:53.206Z,101349.72
2023-04-26T01:49:19.698Z,101354.06
2023-04-26T01:51:46.835Z,101356.72
2023-04-26T01:54:13.297Z,101361.06
2023-04-26T01:56:39.600Z,101357.56
2023-04-26T01:59:06.161Z,101364.66
2023-04-26T02:01:32.882Z,101363.03
2023-04-26T02:03:59.235Z,101363.88
2023-04-26T02:06:26.304Z,101364.75
2023-04-26T02:08:54.243Z,101358.50
2023-04-26T02:11:21.121Z,101364.56
2023-04-26T02:13:47.528Z,101368.22
2023-04-26T02:16:16.025Z,101368.25
2023-04-26T02:18:42.562Z,101365.72
2023-04-26T02:21:11.545Z,101357.91
2023-04-26T02:23:38.133Z,101363.34
2023-04-26T02:26:04.589Z,101358.06
2023-04-26T02:28:31.429Z,101368.63
2023-04-26T02:30:58.378Z,101354.59
2023-04-26T02:33:24.775Z,101364.19
2023-04-26T02:35:51.273Z,101360.69
2023-04-26T02:38:18.773Z,101365.06
2023-04-26T02:40:45.287Z,101362.50
2023-04-26T02:43:12.641Z,101367.00
2023-04-26T02:45:43.140Z,101362.66
2023-04-26T02:48:11.425Z,101354.84
2023-04-26T02:50:38.378Z,101354.00
2023-04-26T02:53:05.326Z,101354.25
2023-04-26T02:55:32.216Z,101361.25
2023-04-26T02:57:58.654Z,101359.72
2023-04-26T03:00:25.106Z,101354.47
2023-04-26T03:02:51.985Z,101359.94
2023-04-26T03:05:19.888Z,101345.03
2023-04-26T03:07:46.385Z,101354.66
2023-04-26T03:10:12.918Z,101351.00
2023-04-26T03:12:39.979Z,101347.47
2023-04-26T03:15:06.796Z,101347.41
2023-04-26T03:17:33.260Z,101351.84
2023-04-26T03:20:01.935Z,101350.13
2023-04-26T03:22:29.147Z,101352.88
2023-04-26T03:24:55.684Z,101350.31
2023-04-26T03:27:22.164Z,101349.56
2023-04-26T03:29:48.498Z,101347.78
2023-04-26T03:32:14.957Z,101335.47
2023-04-26T03:34:41.448Z,101346.06
2023-04-26T03:37:07.803Z,101339.94
2023-04-26T03:39:35.378Z,101346.81
2023-04-26T03:42:03.854Z,101349.38
2023-04-26T03:44:31.171Z,101334.34
2023-04-26T03:46:57.714Z,101326.34
2023-04-26T03:49:24.158Z,101329.78
2023-04-26T03:51:50.640Z,101334.16
2023-04-26T03:54:16.993Z,101334.97
2023-04-26T03:56:43.322Z,101332.38
2023-04-26T03:59:09.937Z,101329.81
2023-04-26T04:01:37.873Z,101331.69
2023-04-26T04:04:04.614Z,101330.16
2023-04-26T04:06:32.692Z,101339.03
2023-04-26T04:09:00.529Z,101337.19
2023-04-26T04:11:26.922Z,101337.22
2023-04-26T04:13:53.257Z,101339.97
2023-04-26T04:16:19.649Z,101349.81
2023-04-26T04:18:46.353Z,101344.56
2023-04-26T04:21:12.959Z,101340.16
2023-04-26T04:23:39.432Z,101334.16
2023-04-26T04:26:08.883Z,101341.97
2023-04-26T04:28:35.330Z,101342.84
2023-04-26T04:31:01.787Z,101339.28
2023-04-26T04:33:28.489Z,101341.97
2023-04-26T04:35:56.197Z,101347.16
2023-04-26T04:38:23.258Z,101343.69
2023-04-26T04:40:50.117Z,101346.25
2023-04-26T04:43:18.366Z,101347.09
2023-04-26T04:45:45.276Z,101354.06
2023-04-26T04:48:11.958Z,101354.06
2023-04-26T04:50:39.408Z,101348.78
2023-04-26T04:53:05.795Z,101351.34
2023-04-26T04:55:32.396Z,101358.31
2023-04-26T04:57:59.006Z,101358.28
2023-04-26T05:00:25.443Z,101359.91
2023-04-26T05:03:02.670Z,101357.97
2023-04-26T05:05:29.868Z,101362.09
2023-04-26T05:07:56.457Z,101367.28
2023-04-26T05:10:22.780Z,101354.78
2023-04-26T05:12:49.159Z,101366.03
2023-04-26T05:15:15.613Z,101371.06
2023-04-26T05:17:42.080Z,101368.25
2023-04-26T05:20:15.781Z,101378.56
2023-04-26T05:22:42.272Z,101381.09
2023-04-26T05:25:10.433Z,101381.75
2023-04-26T05:27:37.682Z,101386.84
2023-04-26T05:30:13.069Z,101381.44
2023-04-26T05:32:59.155Z,101387.34
2023-04-26T05:35:34.066Z,101393.28
2023-04-26T05:38:00.519Z,101397.50
2023-04-26T05:40:26.980Z,101395.53
2023-04-26T05:42:53.461Z,101390.94
2023-04-26T05:45:19.976Z,101393.28
2023-04-26T05:47:47.777Z,101397.69
2023-04-26T05:50:14.341Z,101400.94
2023-04-26T05:52:40.766Z,101408.75
2023-04-26T05:55:07.352Z,101401.69
2023-04-26T05:57:35.636Z,101410.38
2023-04-26T06:00:05.255Z,101407.38
2023-04-26T06:02:40.658Z,101406.28
2023-04-26T06:05:12.515Z,101413.84
2023-04-26T06:07:39.351Z,101410.13
2023-04-26T06:10:05.982Z,101416.13
2023-04-26T06:12:32.967Z,101410.56
2023-04-26T06:14:59.671Z,101408.53
2023-04-26T06:17:28.165Z,101407.28
2023-04-26T06:19:54.693Z,101404.38
2023-04-26T06:22:21.502Z,101420.75
2023-04-26T06:24:47.906Z,101424.78
2023-04-26T06:27:14.252Z,101423.56
2023-04-26T06:29:45.130Z,101427.59
2023-04-26T06:32:11.575Z,101419.97
2023-04-26T06:34:38.306Z,101418.66
2023-04-26T06:37:05.672Z,101426.16
2023-04-26T06:39:32.811Z,101428.28
2023-04-26T06:41:59.443Z,101430.53
2023-04-26T06:44:36.348Z,101433.53
2023-04-26T06:47:04.548Z,101427.59
2023-04-26T06:49:31.721Z,101424.28
2023-04-26T06:51:58.069Z,101429.25
2023-04-26T06:54:29.158Z,101430.47
2023-04-26T06:56:56.022Z,101430.41
2023-04-26T06:59:22.487Z,101421.28
2023-04-26T07:01:49.169Z,101412.75
2023-04-26T07:04:17.341Z,101407.66
2023-04-26T07:06:44.164Z,101420.31
2023-04-26T07:09:10.530Z,101414.81
2023-04-26T07:11:36.881Z,101409.13
2023-04-26T07:14:04.094Z,101416.84
2023-04-26T07:16:30.610Z,101421.81
2023-04-26T07:18:59.899Z,101421.81
2023-04-26T07:21:29.330Z,101426.28
2023-04-26T07:23:56.370Z,101423.28
2023-04-26T07:26:23.651Z,101429.84
2023-04-26T07:28:53.501Z,101426.13
2023-04-26T07:31:20.503Z,101424.03
2023-04-26T07:33:46.915Z,101420.44
2023-04-26T07:36:13.336Z,101429.44
2023-04-26T07:38:39.659Z,101418.91
2023-04-26T07:41:06.437Z,101431.81
2023-04-26T07:43:32.750Z,101432.00
2023-04-26T07:46:02.580Z,101420.41
2023-04-26T07:48:29.154Z,101419.06
2023-04-26T07:50:55.870Z,101412.84
2023-04-26T07:53:22.658Z,101417.06
2023-04-26T07:55:51.362Z,101426.59
2023-04-26T07:58:19.202Z,101426.94
2023-04-26T08:00:45.741Z,101421.59
2023-04-26T08:03:15.411Z,101421.94
2023-04-26T08:05:42.170Z,101415.19
2023-04-26T08:08:08.742Z,101410.78
2023-04-26T08:10:35.063Z,101415.31
2023-04-26T08:13:03.242Z,101418.16
2023-04-26T08:15:29.672Z,101416.69
2023-04-26T08:17:56.339Z,101412.94
2023-04-26T08:20:22.830Z,101413.22
2023-04-26T08:22:49.209Z,101411.63
2023-04-26T08:25:15.761Z,101408.41
2023-04-26T08:27:43.136Z,101410.88
2023-04-26T08:30:09.677Z,101414.84
2023-04-26T08:32:36.491Z,101410.84
2023-04-26T08:35:02.907Z,101414.19
2023-04-26T08:37:29.573Z,101415.19
2023-04-26T08:39:56.009Z,101413.88
2023-04-26T08:42:26.731Z,101417.63
2023-04-26T08:44:53.951Z,101423.81
2023-04-26T08:47:38.301Z,101423.66
2023-04-26T08:50:06.422Z,101415.69
2023-04-26T08:52:32.855Z,101418.50
2023-04-26T08:55:00.545Z,101425.69
2023-04-26T08:57:27.493Z,101422.38
2023-04-26T08:59:57.714Z,101415.25
2023-04-26T09:02:24.506Z,101425.53
2023-04-26T09:04:51.715Z,101419.72
2023-04-26T09:07:29.346Z,101423.66
2023-04-26T09:09:58.303Z,101424.03
2023-04-26T09:12:25.343Z,101419.25
2023-04-26T09:14:51.837Z,101426.28
2023-04-26T09:17:25.642Z,101420.03
2023-04-26T09:19:52.001Z,101419.69
2023-04-26T09:22:48.401Z,101415.22
2023-04-26T09:25:17.381Z,101419.50
2023-04-26T09:27:44.467Z,101423.44
2023-04-26T09:30:18.599Z,101425.88
2023-04-26T09:32:49.536Z,101417.69
2023-04-26T09:35:28.538Z,101429.38
2023-04-26T09:38:01.119Z,101432.28
2023-04-26T09:40:31.117Z,101432.81
2023-04-26T09:43:07.569Z,101424.66
2023-04-26T09:45:53.495Z,101433.47
2023-04-26T09:48:25.750Z,101429.56
2023-04-26T09:50:54.414Z,101421.25
2023-04-26T09:53:34.613Z,101415.41
2023-04-26T09:56:11.271Z,101409.69
2023-04-26T09:58:39.313Z,101407.28
2023-04-26T10:01:10.266Z,101401.97
2023-04-26T10:03:37.751Z,101404.53
2023-04-26T10:06:04.779Z,101403.44
2023-04-26T10:08:32.703Z,101401.38
2023-04-26T10:11:01.551Z,101403.75
2023-04-26T10:13:28.088Z,101403.38
2023-04-26T10:15:56.410Z,101401.78
2023-04-26T10:18:22.828Z,101409.56
2023-04-26T10:20:53.607Z,101402.25
2023-04-26T10:23:22.081Z,101409.00
2023-04-26T10:25:49.418Z,101409.28
2023-04-26T10:28:16.115Z,101407.66
2023-04-26T10:30:56.643Z,101398.41
2023-04-26T10:33:24.721Z,101398.78
2023-04-26T10:36:12.057Z,101398.34
2023-04-26T10:38:40.805Z,101400.69
2023-04-26T10:41:30.053Z,101402.34
2023-04-26T10:43:56.977Z,101395.97
2023-04-26T10:46:39.942Z,101395.88
2023-04-26T10:49:17.943Z,101392.28
2023-04-26T10:52:11.495Z,101399.75
2023-04-26T10:54:55.656Z,101397.31
2023-04-26T10:57:24.127Z,101399.91
2023-04-26T11:00:10.570Z,101389.59
2023-04-26T11:02:48.730Z,101398.25
2023-04-26T11:05:47.399Z,101395.22
2023-04-26T11:08:19.069Z,101387.28
2023-04-26T11:10:51.176Z,101387.97
2023-04-26T11:13:19.387Z,101387.09
2023-04-26T11:15:46.421Z,101388.84
2023-04-26T11:18:12.890Z,101389.94
2023-04-26T11:20:39.217Z,101385.94
2023-04-26T11:23:08.481Z,101396.06
2023-04-26T11:25:34.955Z,101383.25
2023-04-26T11:28:02.948Z,101385.16
2023-04-26T11:30:31.555Z,101381.81
2023-04-26T11:33:03.926Z,101384.53
2023-04-26T11:35:34.483Z,101379.75
2023-04-26T11:38:00.894Z,101383.56
2023-04-26T11:40:28.949Z,101378.31
2023-04-26T11:42:59.222Z,101372.44
2023-04-26T11:45:25.600Z,101363.59
2023-04-26T11:47:52.362Z,101376.09
2023-04-26T11:50:19.812Z,101381.81
2023-04-26T11:52:46.307Z,101370.38
2023-04-26T11:55:12.667Z,101370.78
2023-04-26T11:57:39.068Z,101369.00
2023-04-26T12:00:14.946Z,101373.44
2023-04-26T12:02:46.235Z,101368.91
2023-04-26T12:05:32.155Z,101372.44
2023-04-26T12:08:00.254Z,101377.97
2023-04-26T12:10:27.912Z,101371.13
2023-04-26T12:12:58.517Z,101368.03
2023-04-26T12:15:32.633Z,101376.84
2023-04-26T12:18:10.516Z,101371.69
2023-04-26T12:20:39.022Z,101376.06
2023-04-26T12:23:07.492Z,101368.50
2023-04-26T12:25:35.733Z,101368.66
2023-04-26T12:28:13.766Z,101371.84
2023-04-26T12:30:40.925Z,101373.63
2023-04-26T12:33:16.292Z,101378.97
2023-04-26T12:35:44.584Z,101371.72
2023-04-26T12:38:12.101Z,101366.47
2023-04-26T12:40:38.753Z,101371.34
2023-04-26T12:43:05.107Z,101368.66
2023-04-26T12:45:31.605Z,101363.88
2023-04-26T12:47:58.153Z,101375.47
2023-04-26T12:50:24.688Z,101367.31
2023-04-26T12:52:51.128Z,101360.34
2023-04-26T12:55:17.579Z,101359.66
2023-04-26T12:57:45.056Z,101359.38
2023-04-26T13:00:13.991Z,101356.66
2023-04-26T13:02:41.186Z,101361.81
2023-04-26T13:05:08.258Z,101364.63
2023-04-26T13:07:36.781Z,101366.47
2023-04-26T13:10:04.208Z,101368.94
2023-04-26T13:12:31.013Z,101367.91
2023-04-26T13:14:57.595Z,101355.25
2023-04-26T13:17:25.829Z,101363.88
2023-04-26T13:19:55.416Z,101369.03
2023-04-26T13:22:22.555Z,101371.72
2023-04-26T13:24:48.922Z,101368.47
2023-04-26T13:27:15.262Z,101365.50
2023-04-26T13:29:42.325Z,101386.00
2023-04-26T13:32:08.736Z,101375.66
2023-04-26T13:34:35.113Z,101377.22
2023-04-26T13:37:03.700Z,101371.56
2023-04-26T13:39:30.388Z,101364.81
2023-04-26T13:41:58.689Z,101375.13
2023-04-26T13:44:28.352Z,101371.84
2023-04-26T13:46:56.274Z,101369.50
2023-04-26T13:49:24.450Z,101365.41
2023-04-26T13:51:50.912Z,101368.94
2023-04-26T13:54:17.624Z,101359.41
2023-04-26T13:56:44.186Z,101363.91
2023-04-26T13:59:10.665Z,101359.88
2023-04-26T14:01:37.181Z,101359.59
2023-04-26T14:04:04.412Z,101362.53
2023-04-26T14:06:32.519Z,101359.28
2023-04-26T14:08:58.839Z,101360.97
2023-04-26T14:11:25.274Z,101362.94
2023-04-26T14:13:55.752Z,101363.00
2023-04-26T14:16:23.486Z,101358.88
2023-04-26T14:18:50.045Z,101360.31
2023-04-26T14:21:16.838Z,101360.13
2023-04-26T14:23:43.243Z,101359.31
2023-04-26T14:26:10.567Z,101360.72
2023-04-26T14:28:36.988Z,101361.94
2023-04-26T14:31:03.387Z,101365.47
2023-04-26T14:33:29.748Z,101366.44
2023-04-26T14:35:56.432Z,101372.19
2023-04-26T14:38:22.762Z,101364.16
2023-04-26T14:40:49.150Z,101367.03
2023-04-26T14:43:15.669Z,101366.56
2023-04-26T14:45:44.911Z,101363.47
2023-04-26T14:48:14.768Z,101363.06
2023-04-26T14:50:41.589Z,101358.03
2023-04-26T14:53:08.021Z,101366.41
2023-04-26T14:55:34.376Z,101359.25
2023-04-26T14:58:00.780Z,101356.41
2023-04-26T15:00:30.226Z,101357.78
2023-04-26T15:02:56.901Z,101348.97
2023-04-26T15:05:24.146Z,101353.28
2023-04-26T15:07:51.704Z,101351.56
2023-04-26T15:10:18.070Z,101348.03
2023-04-26T15:12:44.602Z,101345.78
2023-04-26T15:15:11.467Z,101338.88
2023-04-26T15:17:37.994Z,101345.06
2023-04-26T15:20:06.196Z,101346.34
2023-04-26T15:22:35.328Z,101352.56
2023-04-26T15:25:03.895Z,101347.53
2023-04-26T15:27:30.436Z,101344.63
2023-04-26T15:29:56.838Z,101348.94
2023-04-26T15:32:23.266Z,101343.31
2023-04-26T15:34:49.671Z,101347.72
2023-04-26T15:37:16.012Z,101347.38
2023-04-26T15:39:42.497Z,101340.97
2023-04-26T15:42:08.967Z,101346.94
2023-04-26T15:44:35.521Z,101354.72
2023-04-26T15:47:02.105Z,101344.91
2023-04-26T15:49:28.571Z,101350.25
2023-04-26T15:51:54.937Z,101347.84
2023-04-26T15:54:21.724Z,101342.72
2023-04-26T15:56:48.273Z,101353.16
2023-04-26T15:59:14.958Z,101347.66
2023-04-26T16:01:41.427Z,101345.78
2023-04-26T16:04:07.893Z,101352.34
2023-04-26T16:06:34.351Z,101350.03
2023-04-26T16:09:02.199Z,101347.34
2023-04-26T16:11:28.639Z,101346.56
2023-04-26T16:13:55.474Z,101343.16
2023-04-26T16:16:22.671Z,101348.63
2023-04-26T16:18:49.129Z,101351.41
2023-04-26T16:21:16.096Z,101341.84
2023-04-26T16:23:42.507Z,101338.38
2023-04-26T16:26:09.402Z,101339.25
2023-04-26T16:28:36.110Z,101342.88
2023-04-26T16:31:02.548Z,101341.13
2023-04-26T16:33:29.065Z,101345.34
2023-04-26T16:35:55.597Z,101343.81
2023-04-26T16:38:23.133Z,101346.22
2023-04-26T16:41:01.399Z,101341.91
2023-04-26T16:43:29.291Z,101345.63
2023-04-26T16:46:06.786Z,101339.66
2023-04-26T16:48:35.473Z,101335.97
2023-04-26T16:51:06.360Z,101338.47
2023-04-26T16:53:33.866Z,101338.53
2023-04-26T16:56:00.355Z,101338.47
2023-04-26T16:58:26.792Z,101341.13
2023-04-26T17:00:53.246Z,101344.84
2023-04-26T17:03:22.088Z,101343.03
2023-04-26T17:05:49.055Z,101348.13
2023-04-26T17:08:17.007Z,101344.59
2023-04-26T17:10:44.006Z,101351.91
2023-04-26T17:13:12.544Z,101348.72
2023-04-26T17:15:40.707Z,101345.94
2023-04-26T17:18:07.939Z,101350.44
2023-04-26T17:20:35.187Z,101348.88
2023-04-26T17:23:02.871Z,101348.22
2023-04-26T17:25:29.733Z,101345.88
2023-04-26T17:27:56.251Z,101347.81
2023-04-26T17:30:23.036Z,101347.06
2023-04-26T17:32:49.542Z,101343.53
2023-04-26T17:35:16.153Z,101344.66
2023-04-26T17:37:42.634Z,101344.66
2023-04-26T17:40:09.861Z,101347.56
2023-04-26T17:42:36.367Z,101344.28
2023-04-26T17:45:04.941Z,101349.63
2023-04-26T17:47:31.455Z,101346.19
2023-04-26T17:49:58.481Z,101346.06
2023-04-26T17:52:24.911Z,101354.25
2023-04-26T17:54:51.226Z,101349.16
2023-04-26T17:57:18.069Z,101353.91
2023-04-26T17:59:44.447Z,101352.31
2023-04-26T18:02:10.908Z,101352.25
2023-04-26T18:04:37.590Z,101351.41
2023-04-26T18:07:04.413Z,101359.41
2023-04-26T18:09:31.099Z,101354.25
2023-04-26T18:11:57.472Z,101365.78
2023-04-26T18:14:24.917Z,101364.19
2023-04-26T18:16:51.436Z,101369.38
2023-04-26T18:19:17.957Z,101369.59
2023-04-26T18:21:44.399Z,101375.97
2023-04-26T18:24:11.122Z,101378.94
2023-04-26T18:26:39.226Z,101376.50
2023-04-26T18:29:07.368Z,101375.78
2023-04-26T18:31:34.022Z,101376.75
2023-04-26T18:34:00.424Z,101377.69
2023-04-26T18:36:27.106Z,101385.00
2023-04-26T18:38:53.491Z,101377.22
2023-04-26T18:41:19.804Z,101386.41
2023-04-26T18:43:46.139Z,101389.16
2023-04-26T18:46:12.540Z,101388.53
2023-04-26T18:48:38.876Z,101386.78
2023-04-26T18:51:05.198Z,101390.41
2023-04-26T18:53:31.548Z,101389.84
2023-04-26T18:55:57.928Z,101392.66
2023-04-26T18:58:24.258Z,101389.28
2023-04-26T19:00:50.678Z,101390.38
2023-04-26T19:03:17.298Z,101395.09
2023-04-26T19:05:43.784Z,101396.88
2023-04-26T19:08:10.416Z,101388.34
2023-04-26T19:10:36.775Z,101392.03
2023-04-26T19:13:03.226Z,101390.38
2023-04-26T19:15:29.818Z,101405.56
2023-04-26T19:17:56.352Z,101409.16
2023-04-26T19:20:23.629Z,101407.44
2023-04-26T19:22:50.006Z,101410.16
2023-04-26T19:25:20.247Z,101406.81
2023-04-26T19:27:46.593Z,101404.19
2023-04-26T19:30:13.355Z,101411.41
2023-04-26T19:32:39.851Z,101407.25
2023-04-26T19:35:07.247Z,101410.81
2023-04-26T19:37:33.572Z,101414.44
2023-04-26T19:39:59.889Z,101415.41
2023-04-26T19:42:26.681Z,101415.41
2023-04-26T19:44:53.396Z,101416.31
2023-04-26T19:47:20.104Z,101414.59
2023-04-26T19:49:47.777Z,101413.00
2023-04-26T19:52:14.109Z,101407.84
2023-04-26T19:54:40.423Z,101406.88
2023-04-26T19:57:06.868Z,101414.94
2023-04-26T19:59:33.247Z,101420.25
2023-04-26T20:01:59.577Z,101418.50
2023-04-26T20:04:26.097Z,101422.00
2023-04-26T20:06:52.730Z,101424.03
2023-04-26T20:09:19.067Z,101433.75
2023-04-26T20:11:45.416Z,101429.38
2023-04-26T20:14:11.842Z,101426.81
2023-04-26T20:16:38.392Z,101435.69
2023-04-26T20:19:05.058Z,101441.31
2023-04-26T20:21:32.488Z,101438.69
2023-04-26T20:23:58.867Z,101447.69
2023-04-26T20:26:25.231Z,101444.19
2023-04-26T20:28:51.591Z,101446.78
2023-04-26T20:31:18.619Z,101449.34
2023-04-26T20:33:45.390Z,101453.81
2023-04-26T20:36:11.822Z,101447.59
2023-04-26T20:38:38.837Z,101445.94
2023-04-26T20:41:05.183Z,101451.25
2023-04-26T20:43:31.745Z,101450.38
2023-04-26T20:45:58.175Z,101449.59
2023-04-26T20:48:24.671Z,101454.94
2023-04-26T20:50:54.072Z,101449.81
2023-04-26T20:53:20.486Z,101447.00
2023-04-26T20:55:46.805Z,101447.91
2023-04-26T20:58:13.147Z,101448.91
2023-04-26T21:00:40.208Z,101447.25
2023-04-26T21:03:06.644Z,101443.03
2023-04-26T21:05:33.055Z,101451.88
2023-04-26T21:07:59.419Z,101444.91
2023-04-26T21:10:25.771Z,101445.81
2023-04-26T21:12:52.102Z,101445.09
2023-04-26T21:15:18.456Z,101442.44
2023-04-26T21:17:44.812Z,101449.56
2023-04-26T21:20:11.636Z,101452.28
2023-04-26T21:22:37.951Z,101448.97
2023-04-26T21:25:04.644Z,101452.66
2023-04-26T21:27:30.969Z,101443.00
2023-04-26T21:29:57.335Z,101449.31
2023-04-26T21:32:23.733Z,101447.66
2023-04-26T21:34:50.108Z,101447.53
2023-04-26T21:37:16.672Z,101453.91
2023-04-26T21:39:43.027Z,101461.28
2023-04-26T21:42:09.378Z,101461.44
2023-04-26T21:44:35.967Z,101463.19
2023-04-26T21:47:02.413Z,101462.28
2023-04-26T21:49:28.815Z,101468.56
2023-04-26T21:51:55.291Z,101467.81
2023-04-26T21:54:21.663Z,101461.56
2023-04-26T21:56:47.973Z,101462.59
2023-04-26T21:59:15.138Z,101453.84
2023-04-26T22:01:41.544Z,101460.97
2023-04-26T22:04:08.194Z,101453.84
2023-04-26T22:06:34.566Z,101456.72
2023-04-26T22:09:00.940Z,101454.25
2023-04-26T22:11:27.343Z,101462.31
2023-04-26T22:13:53.665Z,101464.16
2023-04-26T22:16:20.026Z,101466.16
2023-04-26T22:18:46.409Z,101461.94
2023-04-26T22:21:12.731Z,101463.75
2023-04-26T22:23:39.145Z,101478.09
2023-04-26T22:26:05.713Z,101473.78
2023-04-26T22:28:32.121Z,101469.47
2023-04-26T22:30:58.493Z,101470.53
2023-04-26T22:33:26.056Z,101467.88
2023-04-26T22:35:57.401Z,101469.84
2023-04-26T22:38:24.913Z,101465.69
2023-04-26T22:40:51.588Z,101466.69
2023-04-26T22:43:22.430Z,101470.44
2023-04-26T22:45:49.024Z,101459.13
2023-04-26T22:48:15.595Z,101469.00
2023-04-26T22:50:41.963Z,101476.13
2023-04-26T22:53:08.445Z,101478.94
2023-04-26T22:55:34.871Z,101473.75
2023-04-26T22:58:01.185Z,101479.28
2023-04-26T23:00:27.509Z,101480.41
2023-04-26T23:02:53.898Z,101475.28
2023-04-26T23:05:20.306Z,101471.84
2023-04-26T23:07:46.713Z,101477.25
2023-04-26T23:10:13.218Z,101476.56
2023-04-26T23:12:40.581Z,101475.81
2023-04-26T23:15:07.554Z,101478.66
2023-04-26T23:17:34.664Z,101472.66
2023-04-26T23:20:01.184Z,101479.97
2023-04-26T23:22:28.178Z,101483.09
2023-04-26T23:24:54.570Z,101488.72
2023-04-26T23:27:21.062Z,101488.22
2023-04-26T23:29:50.005Z,101491.28
2023-04-26T23:32:16.320Z,101493.41
2023-04-26T23:34:42.630Z,101489.25
2023-04-26T23:37:08.957Z,101490.47
2023-04-26T23:39:36.146Z,101493.34
2023-04-26T23:42:03.617Z,101491.88
2023-04-26T23:44:29.959Z,101495.63
2023-04-26T23:46:56.483Z,101503.88
2023-04-26T23:49:22.864Z,101494.38
2023-04-26T23:51:49.186Z,101491.03
2023-04-26T23:54:15.526Z,101499.25
2023-04-26T23:56:41.998Z,101490.56
2023-04-26T23:59:08.306Z,101499.50
